sensor_id;sensor_type;location;lat;lon;timestamp;P1;durP1;ratioP1;P2;durP2;ratioP2
31660;SDS011;18267;52.234;7.444;2023-07-13T00:00:40;9.57;;;1.70;;
31660;SDS011;18267;52.234;7.444;2023-07-13T00:03:06;7.43;;;1.17;;
31660;SDS011;18267;52.234;7.444;2023-07-13T00:05:32;10.40;;;1.27;;
31660;SDS011;18267;52.234;7.444;2023-07-13T00:07:57;2.17;;;0.90;;
31660;SDS011;18267;52.234;7.444;2023-07-13T00:10:23;5.97;;;1.20;;
31660;SDS011;18267;52.234;7.444;2023-07-13T00:12:49;11.60;;;1.30;;
31660;SDS011;18267;52.234;7.444;2023-07-13T00:15:17;5.72;;;1.00;;
31660;SDS011;18267;52.234;7.444;2023-07-13T00:17:48;2.65;;;1.08;;
31660;SDS011;18267;52.234;7.444;2023-07-13T00:20:18;4.38;;;1.08;;
31660;SDS011;18267;52.234;7.444;2023-07-13T00:22:46;6.90;;;0.85;;
31660;SDS011;18267;52.234;7.444;2023-07-13T00:25:13;10.70;;;1.13;;
31660;SDS011;18267;52.234;7.444;2023-07-13T00:27:39;4.97;;;0.80;;
31660;SDS011;18267;52.234;7.444;2023-07-13T00:30:05;3.42;;;0.95;;
31660;SDS011;18267;52.234;7.444;2023-07-13T00:32:31;3.17;;;1.27;;
31660;SDS011;18267;52.234;7.444;2023-07-13T00:34:57;3.40;;;1.02;;
31660;SDS011;18267;52.234;7.444;2023-07-13T00:37:25;8.95;;;1.00;;
31660;SDS011;18267;52.234;7.444;2023-07-13T00:39:50;6.15;;;1.15;;
31660;SDS011;18267;52.234;7.444;2023-07-13T00:42:16;2.80;;;0.90;;
31660;SDS011;18267;52.234;7.444;2023-07-13T00:44:59;11.20;;;0.80;;
31660;SDS011;18267;52.234;7.444;2023-07-13T00:47:26;6.78;;;1.08;;
31660;SDS011;18267;52.234;7.444;2023-07-13T00:49:53;6.32;;;1.45;;
31660;SDS011;18267;52.234;7.444;2023-07-13T00:52:18;4.53;;;1.02;;
31660;SDS011;18267;52.234;7.444;2023-07-13T00:54:45;4.90;;;0.77;;
31660;SDS011;18267;52.234;7.444;2023-07-13T00:57:14;7.00;;;0.98;;
31660;SDS011;18267;52.234;7.444;2023-07-13T00:59:43;6.20;;;1.30;;
31660;SDS011;18267;52.234;7.444;2023-07-13T01:02:12;8.48;;;1.08;;
31660;SDS011;18267;52.234;7.444;2023-07-13T01:04:38;3.38;;;0.93;;
31660;SDS011;18267;52.234;7.444;2023-07-13T01:07:04;3.63;;;1.08;;
31660;SDS011;18267;52.234;7.444;2023-07-13T01:09:31;4.43;;;1.27;;
31660;SDS011;18267;52.234;7.444;2023-07-13T01:11:57;5.70;;;1.35;;
31660;SDS011;18267;52.234;7.444;2023-07-13T01:14:23;9.60;;;1.33;;
31660;SDS011;18267;52.234;7.444;2023-07-13T01:16:49;5.35;;;0.80;;
31660;SDS011;18267;52.234;7.444;2023-07-13T01:19:26;4.53;;;1.25;;
31660;SDS011;18267;52.234;7.444;2023-07-13T01:22:11;2.28;;;0.90;;
31660;SDS011;18267;52.234;7.444;2023-07-13T01:24:42;3.78;;;1.05;;
31660;SDS011;18267;52.234;7.444;2023-07-13T01:27:11;8.38;;;1.27;;
31660;SDS011;18267;52.234;7.444;2023-07-13T01:29:39;8.70;;;1.23;;
31660;SDS011;18267;52.234;7.444;2023-07-13T01:32:10;2.55;;;1.10;;
31660;SDS011;18267;52.234;7.444;2023-07-13T01:34:37;2.80;;;1.30;;
31660;SDS011;18267;52.234;7.444;2023-07-13T01:37:04;2.20;;;1.00;;
31660;SDS011;18267;52.234;7.444;2023-07-13T01:39:30;5.00;;;1.48;;
31660;SDS011;18267;52.234;7.444;2023-07-13T01:41:56;6.43;;;1.20;;
31660;SDS011;18267;52.234;7.444;2023-07-13T01:44:22;4.20;;;1.10;;
31660;SDS011;18267;52.234;7.444;2023-07-13T01:46:48;4.35;;;1.65;;
31660;SDS011;18267;52.234;7.444;2023-07-13T01:49:13;4.57;;;1.50;;
31660;SDS011;18267;52.234;7.444;2023-07-13T01:51:39;3.35;;;1.13;;
31660;SDS011;18267;52.234;7.444;2023-07-13T01:54:04;14.45;;;1.45;;
31660;SDS011;18267;52.234;7.444;2023-07-13T01:56:31;6.32;;;1.67;;
31660;SDS011;18267;52.234;7.444;2023-07-13T01:58:57;5.47;;;1.48;;
31660;SDS011;18267;52.234;7.444;2023-07-13T02:01:22;5.30;;;1.38;;
31660;SDS011;18267;52.234;7.444;2023-07-13T02:03:48;7.78;;;1.95;;
31660;SDS011;18267;52.234;7.444;2023-07-13T02:06:13;4.82;;;1.65;;
31660;SDS011;18267;52.234;7.444;2023-07-13T02:08:40;5.15;;;1.42;;
31660;SDS011;18267;52.234;7.444;2023-07-13T02:11:06;7.07;;;1.55;;
31660;SDS011;18267;52.234;7.444;2023-07-13T02:13:32;6.95;;;1.30;;
31660;SDS011;18267;52.234;7.444;2023-07-13T02:15:57;7.10;;;1.35;;
31660;SDS011;18267;52.234;7.444;2023-07-13T02:18:23;5.25;;;1.40;;
31660;SDS011;18267;52.234;7.444;2023-07-13T02:20:48;5.68;;;1.38;;
31660;SDS011;18267;52.234;7.444;2023-07-13T02:23:14;14.07;;;2.33;;
31660;SDS011;18267;52.234;7.444;2023-07-13T02:25:40;6.25;;;1.60;;
31660;SDS011;18267;52.234;7.444;2023-07-13T02:28:06;11.07;;;1.77;;
31660;SDS011;18267;52.234;7.444;2023-07-13T02:30:31;11.50;;;1.45;;
31660;SDS011;18267;52.234;7.444;2023-07-13T02:32:57;7.93;;;1.27;;
31660;SDS011;18267;52.234;7.444;2023-07-13T02:35:23;5.75;;;1.48;;
31660;SDS011;18267;52.234;7.444;2023-07-13T02:37:48;8.48;;;1.60;;
31660;SDS011;18267;52.234;7.444;2023-07-13T02:40:14;8.35;;;1.40;;
31660;SDS011;18267;52.234;7.444;2023-07-13T02:42:40;5.93;;;1.25;;
31660;SDS011;18267;52.234;7.444;2023-07-13T02:45:07;7.50;;;1.17;;
31660;SDS011;18267;52.234;7.444;2023-07-13T02:47:34;7.85;;;1.83;;
31660;SDS011;18267;52.234;7.444;2023-07-13T02:50:00;9.32;;;1.77;;
31660;SDS011;18267;52.234;7.444;2023-07-13T02:52:26;5.00;;;1.27;;
31660;SDS011;18267;52.234;7.444;2023-07-13T02:54:52;7.40;;;1.35;;
31660;SDS011;18267;52.234;7.444;2023-07-13T02:57:17;6.20;;;1.05;;
31660;SDS011;18267;52.234;7.444;2023-07-13T02:59:43;4.60;;;1.38;;
31660;SDS011;18267;52.234;7.444;2023-07-13T03:02:08;5.57;;;1.00;;
31660;SDS011;18267;52.234;7.444;2023-07-13T03:04:35;9.55;;;1.40;;
31660;SDS011;18267;52.234;7.444;2023-07-13T03:07:01;5.65;;;1.23;;
31660;SDS011;18267;52.234;7.444;2023-07-13T03:09:29;9.55;;;1.40;;
31660;SDS011;18267;52.234;7.444;2023-07-13T03:11:55;2.85;;;1.02;;
31660;SDS011;18267;52.234;7.444;2023-07-13T03:14:21;5.43;;;1.08;;
31660;SDS011;18267;52.234;7.444;2023-07-13T03:16:48;2.45;;;1.10;;
31660;SDS011;18267;52.234;7.444;2023-07-13T03:19:13;3.88;;;1.17;;
31660;SDS011;18267;52.234;7.444;2023-07-13T03:21:39;4.65;;;1.23;;
31660;SDS011;18267;52.234;7.444;2023-07-13T03:24:05;3.95;;;1.17;;
31660;SDS011;18267;52.234;7.444;2023-07-13T03:26:32;9.77;;;1.00;;
31660;SDS011;18267;52.234;7.444;2023-07-13T03:28:58;4.88;;;1.83;;
31660;SDS011;18267;52.234;7.444;2023-07-13T03:31:27;4.72;;;1.17;;
31660;SDS011;18267;52.234;7.444;2023-07-13T03:33:55;7.10;;;1.75;;
31660;SDS011;18267;52.234;7.444;2023-07-13T03:36:24;6.68;;;1.45;;
31660;SDS011;18267;52.234;7.444;2023-07-13T03:38:56;9.32;;;1.42;;
31660;SDS011;18267;52.234;7.444;2023-07-13T03:41:24;6.10;;;1.25;;
31660;SDS011;18267;52.234;7.444;2023-07-13T03:43:51;8.15;;;1.40;;
31660;SDS011;18267;52.234;7.444;2023-07-13T03:46:17;8.48;;;1.42;;
31660;SDS011;18267;52.234;7.444;2023-07-13T03:48:44;6.45;;;1.27;;
31660;SDS011;18267;52.234;7.444;2023-07-13T03:51:10;4.30;;;1.38;;
31660;SDS011;18267;52.234;7.444;2023-07-13T03:53:39;2.55;;;1.30;;
31660;SDS011;18267;52.234;7.444;2023-07-13T03:56:06;5.60;;;1.38;;
31660;SDS011;18267;52.234;7.444;2023-07-13T03:58:33;5.28;;;1.13;;
31660;SDS011;18267;52.234;7.444;2023-07-13T04:01:00;4.05;;;1.10;;
31660;SDS011;18267;52.234;7.444;2023-07-13T04:03:28;4.80;;;1.38;;
31660;SDS011;18267;52.234;7.444;2023-07-13T04:05:55;3.20;;;1.20;;
31660;SDS011;18267;52.234;7.444;2023-07-13T04:08:24;6.15;;;1.30;;
31660;SDS011;18267;52.234;7.444;2023-07-13T04:10:51;10.60;;;1.88;;
31660;SDS011;18267;52.234;7.444;2023-07-13T04:13:17;4.10;;;1.33;;
31660;SDS011;18267;52.234;7.444;2023-07-13T04:15:43;6.05;;;1.38;;
31660;SDS011;18267;52.234;7.444;2023-07-13T04:18:08;3.03;;;1.30;;
31660;SDS011;18267;52.234;7.444;2023-07-13T04:20:34;4.20;;;1.30;;
31660;SDS011;18267;52.234;7.444;2023-07-13T04:23:00;9.25;;;1.42;;
31660;SDS011;18267;52.234;7.444;2023-07-13T04:25:26;2.53;;;1.30;;
31660;SDS011;18267;52.234;7.444;2023-07-13T04:27:52;3.90;;;0.93;;
31660;SDS011;18267;52.234;7.444;2023-07-13T04:30:19;5.10;;;1.60;;
31660;SDS011;18267;52.234;7.444;2023-07-13T04:32:45;5.63;;;1.50;;
31660;SDS011;18267;52.234;7.444;2023-07-13T04:35:11;8.73;;;1.70;;
31660;SDS011;18267;52.234;7.444;2023-07-13T04:37:39;3.85;;;1.17;;
31660;SDS011;18267;52.234;7.444;2023-07-13T04:40:05;12.27;;;1.50;;
31660;SDS011;18267;52.234;7.444;2023-07-13T04:42:36;4.45;;;1.67;;
31660;SDS011;18267;52.234;7.444;2023-07-13T04:45:02;7.00;;;1.25;;
31660;SDS011;18267;52.234;7.444;2023-07-13T04:47:29;8.00;;;1.40;;
31660;SDS011;18267;52.234;7.444;2023-07-13T04:49:55;8.20;;;1.42;;
31660;SDS011;18267;52.234;7.444;2023-07-13T04:52:22;4.85;;;1.73;;
31660;SDS011;18267;52.234;7.444;2023-07-13T04:54:48;6.22;;;1.30;;
31660;SDS011;18267;52.234;7.444;2023-07-13T04:57:14;7.57;;;1.40;;
31660;SDS011;18267;52.234;7.444;2023-07-13T04:59:39;10.35;;;1.58;;
31660;SDS011;18267;52.234;7.444;2023-07-13T05:02:05;8.98;;;1.77;;
31660;SDS011;18267;52.234;7.444;2023-07-13T05:04:31;4.55;;;1.35;;
31660;SDS011;18267;52.234;7.444;2023-07-13T05:06:56;16.00;;;2.25;;
31660;SDS011;18267;52.234;7.444;2023-07-13T05:09:22;4.85;;;1.63;;
31660;SDS011;18267;52.234;7.444;2023-07-13T05:11:48;6.43;;;1.42;;
31660;SDS011;18267;52.234;7.444;2023-07-13T05:14:13;10.63;;;1.80;;
31660;SDS011;18267;52.234;7.444;2023-07-13T05:16:40;8.10;;;1.55;;
31660;SDS011;18267;52.234;7.444;2023-07-13T05:21:44;8.45;;;1.50;;
31660;SDS011;18267;52.234;7.444;2023-07-13T05:24:11;7.32;;;1.80;;
31660;SDS011;18267;52.234;7.444;2023-07-13T05:26:36;14.88;;;1.60;;
31660;SDS011;18267;52.234;7.444;2023-07-13T05:29:03;4.00;;;1.77;;
31660;SDS011;18267;52.234;7.444;2023-07-13T05:31:29;6.53;;;1.38;;
31660;SDS011;18267;52.234;7.444;2023-07-13T05:34:01;2.67;;;1.48;;
31660;SDS011;18267;52.234;7.444;2023-07-13T05:36:27;4.78;;;1.45;;
31660;SDS011;18267;52.234;7.444;2023-07-13T05:38:53;6.70;;;1.55;;
31660;SDS011;18267;52.234;7.444;2023-07-13T05:41:19;8.45;;;2.08;;
31660;SDS011;18267;52.234;7.444;2023-07-13T05:43:44;9.02;;;2.08;;
31660;SDS011;18267;52.234;7.444;2023-07-13T05:46:10;4.18;;;1.55;;
31660;SDS011;18267;52.234;7.444;2023-07-13T05:48:35;12.68;;;1.42;;
31660;SDS011;18267;52.234;7.444;2023-07-13T05:51:09;11.40;;;1.75;;
31660;SDS011;18267;52.234;7.444;2023-07-13T05:53:35;9.10;;;1.85;;
31660;SDS011;18267;52.234;7.444;2023-07-13T05:56:01;10.27;;;2.13;;
31660;SDS011;18267;52.234;7.444;2023-07-13T05:58:33;7.38;;;1.80;;
31660;SDS011;18267;52.234;7.444;2023-07-13T06:01:04;6.13;;;1.95;;
31660;SDS011;18267;52.234;7.444;2023-07-13T06:03:32;7.05;;;1.85;;
31660;SDS011;18267;52.234;7.444;2023-07-13T06:05:58;5.40;;;2.00;;
31660;SDS011;18267;52.234;7.444;2023-07-13T06:08:25;14.10;;;2.15;;
31660;SDS011;18267;52.234;7.444;2023-07-13T06:10:51;13.18;;;2.28;;
31660;SDS011;18267;52.234;7.444;2023-07-13T06:16:03;4.82;;;1.63;;
31660;SDS011;18267;52.234;7.444;2023-07-13T06:18:29;6.45;;;1.50;;
31660;SDS011;18267;52.234;7.444;2023-07-13T06:20:56;5.05;;;2.15;;
31660;SDS011;18267;52.234;7.444;2023-07-13T06:23:22;9.20;;;2.42;;
31660;SDS011;18267;52.234;7.444;2023-07-13T06:25:49;9.90;;;1.90;;
31660;SDS011;18267;52.234;7.444;2023-07-13T06:28:15;7.15;;;2.38;;
31660;SDS011;18267;52.234;7.444;2023-07-13T06:30:40;6.28;;;1.55;;
31660;SDS011;18267;52.234;7.444;2023-07-13T06:33:06;5.97;;;2.03;;
31660;SDS011;18267;52.234;7.444;2023-07-13T06:35:32;5.97;;;1.70;;
31660;SDS011;18267;52.234;7.444;2023-07-13T06:37:58;7.60;;;2.03;;
31660;SDS011;18267;52.234;7.444;2023-07-13T06:40:24;4.32;;;1.65;;
31660;SDS011;18267;52.234;7.444;2023-07-13T06:42:49;10.07;;;1.90;;
31660;SDS011;18267;52.234;7.444;2023-07-13T06:45:16;8.13;;;1.67;;
31660;SDS011;18267;52.234;7.444;2023-07-13T06:47:42;9.40;;;2.05;;
31660;SDS011;18267;52.234;7.444;2023-07-13T06:50:09;9.07;;;1.90;;
31660;SDS011;18267;52.234;7.444;2023-07-13T06:52:35;6.63;;;1.45;;
31660;SDS011;18267;52.234;7.444;2023-07-13T06:55:00;6.75;;;1.88;;
31660;SDS011;18267;52.234;7.444;2023-07-13T06:57:26;7.90;;;1.83;;
31660;SDS011;18267;52.234;7.444;2023-07-13T06:59:53;7.45;;;2.20;;
31660;SDS011;18267;52.234;7.444;2023-07-13T07:02:18;8.65;;;2.00;;
31660;SDS011;18267;52.234;7.444;2023-07-13T07:04:44;7.95;;;1.60;;
31660;SDS011;18267;52.234;7.444;2023-07-13T07:07:09;8.60;;;2.08;;
31660;SDS011;18267;52.234;7.444;2023-07-13T07:09:35;5.97;;;2.03;;
31660;SDS011;18267;52.234;7.444;2023-07-13T07:12:01;4.13;;;1.77;;
31660;SDS011;18267;52.234;7.444;2023-07-13T07:14:27;12.50;;;2.45;;
31660;SDS011;18267;52.234;7.444;2023-07-13T07:16:53;8.32;;;2.58;;
31660;SDS011;18267;52.234;7.444;2023-07-13T07:19:19;11.15;;;2.40;;
31660;SDS011;18267;52.234;7.444;2023-07-13T07:21:45;12.25;;;2.50;;
31660;SDS011;18267;52.234;7.444;2023-07-13T07:24:10;10.15;;;2.83;;
31660;SDS011;18267;52.234;7.444;2023-07-13T07:26:36;5.72;;;2.42;;
31660;SDS011;18267;52.234;7.444;2023-07-13T07:29:01;6.63;;;2.13;;
31660;SDS011;18267;52.234;7.444;2023-07-13T07:33:57;5.40;;;2.33;;
31660;SDS011;18267;52.234;7.444;2023-07-13T07:36:23;8.40;;;2.72;;
31660;SDS011;18267;52.234;7.444;2023-07-13T07:38:48;9.45;;;2.70;;
31660;SDS011;18267;52.234;7.444;2023-07-13T07:41:14;11.60;;;3.00;;
31660;SDS011;18267;52.234;7.444;2023-07-13T07:43:39;9.65;;;3.20;;
31660;SDS011;18267;52.234;7.444;2023-07-13T07:46:05;7.97;;;3.13;;
31660;SDS011;18267;52.234;7.444;2023-07-13T07:48:31;8.02;;;2.95;;
31660;SDS011;18267;52.234;7.444;2023-07-13T07:50:58;5.63;;;3.28;;
31660;SDS011;18267;52.234;7.444;2023-07-13T07:53:24;3.38;;;3.08;;
31660;SDS011;18267;52.234;7.444;2023-07-13T07:55:49;6.57;;;3.88;;
31660;SDS011;18267;52.234;7.444;2023-07-13T07:58:17;8.32;;;3.55;;
31660;SDS011;18267;52.234;7.444;2023-07-13T08:00:42;13.57;;;3.55;;
31660;SDS011;18267;52.234;7.444;2023-07-13T08:03:10;9.98;;;3.95;;
31660;SDS011;18267;52.234;7.444;2023-07-13T08:05:36;10.18;;;3.63;;
31660;SDS011;18267;52.234;7.444;2023-07-13T08:08:04;8.52;;;3.53;;
31660;SDS011;18267;52.234;7.444;2023-07-13T08:10:30;9.70;;;4.18;;
31660;SDS011;18267;52.234;7.444;2023-07-13T08:13:01;5.82;;;2.90;;
31660;SDS011;18267;52.234;7.444;2023-07-13T08:15:27;17.08;;;3.88;;
31660;SDS011;18267;52.234;7.444;2023-07-13T08:17:53;11.30;;;4.30;;
31660;SDS011;18267;52.234;7.444;2023-07-13T08:20:20;7.53;;;3.67;;
31660;SDS011;18267;52.234;7.444;2023-07-13T08:22:46;8.13;;;3.35;;
31660;SDS011;18267;52.234;7.444;2023-07-13T08:25:12;9.95;;;3.20;;
31660;SDS011;18267;52.234;7.444;2023-07-13T08:27:37;10.13;;;3.65;;
31660;SDS011;18267;52.234;7.444;2023-07-13T08:30:03;10.15;;;3.65;;
31660;SDS011;18267;52.234;7.444;2023-07-13T08:32:30;8.48;;;3.53;;
31660;SDS011;18267;52.234;7.444;2023-07-13T08:35:04;13.43;;;3.80;;
31660;SDS011;18267;52.234;7.444;2023-07-13T08:37:30;7.38;;;3.65;;
31660;SDS011;18267;52.234;7.444;2023-07-13T08:39:56;10.00;;;3.95;;
31660;SDS011;18267;52.234;7.444;2023-07-13T08:42:44;10.40;;;3.42;;
31660;SDS011;18267;52.234;7.444;2023-07-13T08:45:22;5.63;;;3.10;;
31660;SDS011;18267;52.234;7.444;2023-07-13T08:50:34;10.18;;;3.70;;
31660;SDS011;18267;52.234;7.444;2023-07-13T08:53:03;9.20;;;3.53;;
31660;SDS011;18267;52.234;7.444;2023-07-13T08:55:30;9.57;;;3.95;;
31660;SDS011;18267;52.234;7.444;2023-07-13T08:58:06;10.70;;;3.85;;
31660;SDS011;18267;52.234;7.444;2023-07-13T09:01:22;8.73;;;3.22;;
31660;SDS011;18267;52.234;7.444;2023-07-13T09:06:27;8.02;;;3.53;;
31660;SDS011;18267;52.234;7.444;2023-07-13T09:09:02;11.50;;;3.95;;
31660;SDS011;18267;52.234;7.444;2023-07-13T09:14:43;11.57;;;4.40;;
31660;SDS011;18267;52.234;7.444;2023-07-13T09:17:18;7.85;;;3.80;;
31660;SDS011;18267;52.234;7.444;2023-07-13T09:19:49;6.50;;;3.10;;
31660;SDS011;18267;52.234;7.444;2023-07-13T09:22:44;8.98;;;3.85;;
31660;SDS011;18267;52.234;7.444;2023-07-13T09:25:23;5.68;;;3.55;;
31660;SDS011;18267;52.234;7.444;2023-07-13T09:27:57;9.25;;;3.22;;
31660;SDS011;18267;52.234;7.444;2023-07-13T09:30:45;7.05;;;3.05;;
31660;SDS011;18267;52.234;7.444;2023-07-13T09:33:23;8.70;;;3.67;;
31660;SDS011;18267;52.234;7.444;2023-07-13T09:35:50;7.72;;;2.90;;
31660;SDS011;18267;52.234;7.444;2023-07-13T09:38:17;6.25;;;2.95;;
31660;SDS011;18267;52.234;7.444;2023-07-13T09:41:01;6.25;;;3.40;;
31660;SDS011;18267;52.234;7.444;2023-07-13T09:44:00;13.52;;;3.20;;
31660;SDS011;18267;52.234;7.444;2023-07-13T09:46:34;8.63;;;3.17;;
31660;SDS011;18267;52.234;7.444;2023-07-13T09:49:01;8.95;;;3.70;;
31660;SDS011;18267;52.234;7.444;2023-07-13T09:51:27;5.03;;;2.85;;
31660;SDS011;18267;52.234;7.444;2023-07-13T09:53:53;10.77;;;3.85;;
31660;SDS011;18267;52.234;7.444;2023-07-13T09:56:23;8.52;;;3.53;;
31660;SDS011;18267;52.234;7.444;2023-07-13T09:58:54;9.25;;;3.60;;
31660;SDS011;18267;52.234;7.444;2023-07-13T10:01:33;10.60;;;4.63;;
31660;SDS011;18267;52.234;7.444;2023-07-13T10:04:10;5.97;;;3.40;;
31660;SDS011;18267;52.234;7.444;2023-07-13T10:06:41;11.93;;;3.90;;
31660;SDS011;18267;52.234;7.444;2023-07-13T10:09:21;6.07;;;3.35;;
31660;SDS011;18267;52.234;7.444;2023-07-13T10:11:46;6.03;;;3.17;;
31660;SDS011;18267;52.234;7.444;2023-07-13T10:14:19;13.75;;;3.75;;
31660;SDS011;18267;52.234;7.444;2023-07-13T10:16:48;13.82;;;3.42;;
31660;SDS011;18267;52.234;7.444;2023-07-13T10:19:27;6.22;;;3.00;;
31660;SDS011;18267;52.234;7.444;2023-07-13T10:22:02;7.30;;;3.47;;
31660;SDS011;18267;52.234;7.444;2023-07-13T10:24:51;6.32;;;3.30;;
31660;SDS011;18267;52.234;7.444;2023-07-13T10:27:22;5.70;;;3.17;;
31660;SDS011;18267;52.234;7.444;2023-07-13T10:29:53;6.13;;;3.42;;
31660;SDS011;18267;52.234;7.444;2023-07-13T10:32:26;8.10;;;3.38;;
31660;SDS011;18267;52.234;7.444;2023-07-13T10:34:52;8.02;;;2.20;;
31660;SDS011;18267;52.234;7.444;2023-07-13T10:37:22;13.27;;;3.03;;
31660;SDS011;18267;52.234;7.444;2023-07-13T10:39:52;7.55;;;2.63;;
31660;SDS011;18267;52.234;7.444;2023-07-13T10:42:29;10.35;;;3.05;;
31660;SDS011;18267;52.234;7.444;2023-07-13T10:44:58;7.97;;;2.60;;
31660;SDS011;18267;52.234;7.444;2023-07-13T10:47:26;7.57;;;3.35;;
31660;SDS011;18267;52.234;7.444;2023-07-13T10:49:53;5.78;;;2.92;;
31660;SDS011;18267;52.234;7.444;2023-07-13T10:58:11;6.40;;;2.90;;
31660;SDS011;18267;52.234;7.444;2023-07-13T11:00:49;5.93;;;2.53;;
31660;SDS011;18267;52.234;7.444;2023-07-13T11:03:20;5.07;;;2.45;;
31660;SDS011;18267;52.234;7.444;2023-07-13T11:05:51;8.95;;;3.13;;
31660;SDS011;18267;52.234;7.444;2023-07-13T11:10:56;7.07;;;2.75;;
31660;SDS011;18267;52.234;7.444;2023-07-13T11:13:35;8.25;;;2.55;;
31660;SDS011;18267;52.234;7.444;2023-07-13T11:16:12;6.05;;;2.90;;
31660;SDS011;18267;52.234;7.444;2023-07-13T11:18:48;8.95;;;2.58;;
31660;SDS011;18267;52.234;7.444;2023-07-13T11:21:16;5.00;;;2.50;;
31660;SDS011;18267;52.234;7.444;2023-07-13T11:23:45;7.35;;;2.10;;
31660;SDS011;18267;52.234;7.444;2023-07-13T11:31:49;9.97;;;2.73;;
31660;SDS011;18267;52.234;7.444;2023-07-13T11:34:18;8.85;;;2.13;;
31660;SDS011;18267;52.234;7.444;2023-07-13T11:36:55;6.10;;;2.63;;
31660;SDS011;18267;52.234;7.444;2023-07-13T11:41:53;4.57;;;2.15;;
31660;SDS011;18267;52.234;7.444;2023-07-13T11:44:24;9.77;;;2.58;;
31660;SDS011;18267;52.234;7.444;2023-07-13T11:46:59;7.68;;;3.10;;
31660;SDS011;18267;52.234;7.444;2023-07-13T11:49:44;6.82;;;2.22;;
31660;SDS011;18267;52.234;7.444;2023-07-13T11:52:14;4.95;;;2.17;;
31660;SDS011;18267;52.234;7.444;2023-07-13T11:54:51;14.43;;;3.10;;
31660;SDS011;18267;52.234;7.444;2023-07-13T11:57:24;9.38;;;2.90;;
31660;SDS011;18267;52.234;7.444;2023-07-13T11:59:54;5.00;;;2.38;;
31660;SDS011;18267;52.234;7.444;2023-07-13T12:02:31;6.35;;;1.90;;
31660;SDS011;18267;52.234;7.444;2023-07-13T12:04:59;3.03;;;2.15;;
31660;SDS011;18267;52.234;7.444;2023-07-13T12:07:28;2.17;;;1.40;;
31660;SDS011;18267;52.234;7.444;2023-07-13T12:10:30;4.72;;;1.20;;
31660;SDS011;18267;52.234;7.444;2023-07-13T12:12:57;1.98;;;1.02;;
31660;SDS011;18267;52.234;7.444;2023-07-13T12:15:23;1.13;;;0.80;;
31660;SDS011;18267;52.234;7.444;2023-07-13T12:18:00;1.88;;;1.00;;
31660;SDS011;18267;52.234;7.444;2023-07-13T12:20:27;3.15;;;1.02;;
31660;SDS011;18267;52.234;7.444;2023-07-13T12:23:04;2.20;;;1.10;;
31660;SDS011;18267;52.234;7.444;2023-07-13T12:25:31;3.50;;;1.20;;
31660;SDS011;18267;52.234;7.444;2023-07-13T12:27:57;3.60;;;1.35;;
31660;SDS011;18267;52.234;7.444;2023-07-13T12:30:27;3.13;;;1.70;;
31660;SDS011;18267;52.234;7.444;2023-07-13T12:32:56;3.22;;;1.77;;
31660;SDS011;18267;52.234;7.444;2023-07-13T12:35:39;4.18;;;1.88;;
31660;SDS011;18267;52.234;7.444;2023-07-13T12:38:08;3.75;;;2.83;;
31660;SDS011;18267;52.234;7.444;2023-07-13T12:40:35;7.53;;;3.42;;
31660;SDS011;18267;52.234;7.444;2023-07-13T12:43:02;11.23;;;3.78;;
31660;SDS011;18267;52.234;7.444;2023-07-13T12:45:31;7.93;;;4.03;;
31660;SDS011;18267;52.234;7.444;2023-07-13T12:47:59;10.30;;;3.95;;
31660;SDS011;18267;52.234;7.444;2023-07-13T12:50:39;15.18;;;3.90;;
31660;SDS011;18267;52.234;7.444;2023-07-13T12:53:12;10.15;;;4.10;;
31660;SDS011;18267;52.234;7.444;2023-07-13T12:55:46;12.63;;;4.45;;
31660;SDS011;18267;52.234;7.444;2023-07-13T12:58:20;11.60;;;2.95;;
31660;SDS011;18267;52.234;7.444;2023-07-13T13:01:03;3.13;;;1.55;;
31660;SDS011;18267;52.234;7.444;2023-07-13T13:08:48;3.00;;;1.50;;
31660;SDS011;18267;52.234;7.444;2023-07-13T13:11:17;5.45;;;1.88;;
31660;SDS011;18267;52.234;7.444;2023-07-13T13:13:44;5.10;;;2.03;;
31660;SDS011;18267;52.234;7.444;2023-07-13T13:16:19;2.83;;;1.95;;
31660;SDS011;18267;52.234;7.444;2023-07-13T13:18:49;3.25;;;2.38;;
31660;SDS011;18267;52.234;7.444;2023-07-13T13:21:16;5.43;;;2.60;;
31660;SDS011;18267;52.234;7.444;2023-07-13T13:23:42;3.88;;;2.20;;
31660;SDS011;18267;52.234;7.444;2023-07-13T13:26:10;5.18;;;2.28;;
31660;SDS011;18267;52.234;7.444;2023-07-13T13:28:37;3.35;;;1.92;;
31660;SDS011;18267;52.234;7.444;2023-07-13T13:31:02;2.45;;;1.63;;
31660;SDS011;18267;52.234;7.444;2023-07-13T13:33:28;2.05;;;1.65;;
31660;SDS011;18267;52.234;7.444;2023-07-13T13:35:55;1.70;;;1.35;;
31660;SDS011;18267;52.234;7.444;2023-07-13T13:38:24;4.28;;;1.60;;
31660;SDS011;18267;52.234;7.444;2023-07-13T13:40:52;2.83;;;1.58;;
31660;SDS011;18267;52.234;7.444;2023-07-13T13:43:18;2.65;;;1.25;;
31660;SDS011;18267;52.234;7.444;2023-07-13T13:45:46;8.75;;;1.70;;
31660;SDS011;18267;52.234;7.444;2023-07-13T13:48:19;5.32;;;2.10;;
31660;SDS011;18267;52.234;7.444;2023-07-13T13:50:55;5.13;;;2.50;;
31660;SDS011;18267;52.234;7.444;2023-07-13T13:53:21;2.30;;;2.10;;
31660;SDS011;18267;52.234;7.444;2023-07-13T13:55:48;4.88;;;2.47;;
31660;SDS011;18267;52.234;7.444;2023-07-13T13:58:14;4.93;;;3.25;;
31660;SDS011;18267;52.234;7.444;2023-07-13T14:00:41;5.63;;;3.00;;
31660;SDS011;18267;52.234;7.444;2023-07-13T14:03:14;5.57;;;3.00;;
31660;SDS011;18267;52.234;7.444;2023-07-13T14:05:44;3.88;;;3.20;;
31660;SDS011;18267;52.234;7.444;2023-07-13T14:08:27;8.20;;;2.83;;
31660;SDS011;18267;52.234;7.444;2023-07-13T14:10:54;2.38;;;1.92;;
31660;SDS011;18267;52.234;7.444;2023-07-13T14:13:33;1.60;;;1.20;;
31660;SDS011;18267;52.234;7.444;2023-07-13T14:16:12;2.13;;;0.90;;
31660;SDS011;18267;52.234;7.444;2023-07-13T14:18:45;1.90;;;0.95;;
31660;SDS011;18267;52.234;7.444;2023-07-13T14:21:19;3.45;;;1.10;;
31660;SDS011;18267;52.234;7.444;2023-07-13T14:23:46;0.70;;;0.70;;
31660;SDS011;18267;52.234;7.444;2023-07-13T14:26:17;1.13;;;0.85;;
31660;SDS011;18267;52.234;7.444;2023-07-13T14:28:46;2.92;;;1.08;;
31660;SDS011;18267;52.234;7.444;2023-07-13T14:31:13;2.88;;;1.08;;
31660;SDS011;18267;52.234;7.444;2023-07-13T14:33:41;1.45;;;0.98;;
31660;SDS011;18267;52.234;7.444;2023-07-13T14:38:50;4.57;;;1.05;;
31660;SDS011;18267;52.234;7.444;2023-07-13T14:41:16;2.25;;;0.95;;
31660;SDS011;18267;52.234;7.444;2023-07-13T14:43:41;2.60;;;0.73;;
31660;SDS011;18267;52.234;7.444;2023-07-13T14:46:08;1.52;;;0.80;;
31660;SDS011;18267;52.234;7.444;2023-07-13T14:48:47;1.10;;;0.63;;
31660;SDS011;18267;52.234;7.444;2023-07-13T14:51:13;3.60;;;1.08;;
31660;SDS011;18267;52.234;7.444;2023-07-13T14:53:38;1.60;;;1.10;;
31660;SDS011;18267;52.234;7.444;2023-07-13T14:56:11;1.50;;;1.15;;
31660;SDS011;18267;52.234;7.444;2023-07-13T14:58:38;1.55;;;1.40;;
31660;SDS011;18267;52.234;7.444;2023-07-13T15:01:08;2.65;;;1.42;;
31660;SDS011;18267;52.234;7.444;2023-07-13T15:03:41;4.45;;;1.63;;
31660;SDS011;18267;52.234;7.444;2023-07-13T15:06:10;1.65;;;1.20;;
31660;SDS011;18267;52.234;7.444;2023-07-13T15:08:37;3.47;;;2.40;;
31660;SDS011;18267;52.234;7.444;2023-07-13T15:11:04;6.28;;;1.80;;
31660;SDS011;18267;52.234;7.444;2023-07-13T15:13:30;5.07;;;2.05;;
31660;SDS011;18267;52.234;7.444;2023-07-13T15:15:55;2.53;;;2.15;;
31660;SDS011;18267;52.234;7.444;2023-07-13T15:18:22;4.65;;;2.10;;
31660;SDS011;18267;52.234;7.444;2023-07-13T15:20:50;3.67;;;2.47;;
31660;SDS011;18267;52.234;7.444;2023-07-13T15:23:21;5.53;;;2.17;;
31660;SDS011;18267;52.234;7.444;2023-07-13T15:25:47;5.95;;;2.38;;
31660;SDS011;18267;52.234;7.444;2023-07-13T15:28:13;2.65;;;1.98;;
31660;SDS011;18267;52.234;7.444;2023-07-13T15:30:46;8.05;;;2.72;;
31660;SDS011;18267;52.234;7.444;2023-07-13T15:33:29;6.40;;;3.00;;
31660;SDS011;18267;52.234;7.444;2023-07-13T15:35:55;8.93;;;2.67;;